createdAt,value
2023-03-05T00:00:44.950Z,99987.72
2023-03-05T00:01:46.888Z,99992.34
2023-03-05T00:02:48.808Z,99992.34
2023-03-05T00:03:54.608Z,99986.31
2023-03-05T00:04:56.510Z,99986.31
2023-03-05T00:05:58.455Z,99988.31
2023-03-05T00:07:00.255Z,99984.97
2023-03-05T00:08:02.269Z,99985.97
2023-03-05T00:09:04.945Z,99988.78
2023-03-05T00:10:07.572Z,99991.47
2023-03-05T00:11:11.741Z,99978.28
2023-03-05T00:12:13.570Z,99982.59
2023-03-05T00:13:15.374Z,99981.94
2023-03-05T00:14:17.196Z,99972.25
2023-03-05T00:15:19.081Z,99971.19
2023-03-05T00:16:22.315Z,99979.56
2023-03-05T00:17:24.213Z,99972.06
2023-03-05T00:18:26.028Z,99961.84
2023-03-05T00:19:27.799Z,99972.56
2023-03-05T00:20:29.648Z,99974.56
2023-03-05T00:21:34.814Z,99974.56
2023-03-05T00:22:36.726Z,99976.22
2023-03-05T00:23:38.627Z,99973.72
2023-03-05T00:24:40.396Z,99974.56
2023-03-05T00:25:42.908Z,99969.53
2023-03-05T00:26:45.986Z,99965.59
2023-03-05T00:27:48.145Z,99977.53
2023-03-05T00:28:51.893Z,99969.53
2023-03-05T00:29:53.724Z,99972.34
2023-03-05T00:30:59.986Z,99964.50
2023-03-05T00:32:01.871Z,99960.13
2023-03-05T00:33:04.194Z,99947.41
2023-03-05T00:34:09.390Z,99962.13
2023-03-05T00:35:11.312Z,99956.78
2023-03-05T00:36:13.202Z,99959.44
2023-03-05T00:37:15.076Z,99952.44
2023-03-05T00:38:16.904Z,99949.91
2023-03-05T00:39:20.929Z,99962.44
2023-03-05T00:40:22.897Z,99952.75
2023-03-05T00:41:24.806Z,99950.91
2023-03-05T00:42:26.719Z,99924.28
2023-03-05T00:43:29.205Z,99944.06
2023-03-05T00:44:31.101Z,99955.56
2023-03-05T00:45:33.294Z,99950.41
2023-03-05T00:46:36.017Z,99955.75
2023-03-05T00:47:38.424Z,99951.41
2023-03-05T00:48:40.264Z,99947.06
2023-03-05T00:49:42.095Z,99948.88
2023-03-05T00:50:43.932Z,99949.19
2023-03-05T00:51:45.809Z,99940.63
2023-03-05T00:52:47.556Z,99942.19
2023-03-05T00:53:49.458Z,99907.84
2023-03-05T00:54:51.549Z,99942.19
2023-03-05T00:55:53.537Z,99945.97
2023-03-05T00:56:55.328Z,99918.75
2023-03-05T00:57:57.191Z,99935.16
2023-03-05T00:58:59.134Z,99946.81
2023-03-05T01:00:00.936Z,99948.63
2023-03-05T01:01:03.778Z,99931.28
2023-03-05T01:02:05.698Z,99937.16
2023-03-05T01:03:08.122Z,99928.78
2023-03-05T01:04:10.204Z,99936.31
2023-03-05T01:05:13.762Z,99945.28
2023-03-05T01:06:17.129Z,99932.81
2023-03-05T01:07:19.209Z,99924.94
2023-03-05T01:08:21.126Z,99926.44
2023-03-05T01:09:25.237Z,99931.13
2023-03-05T01:10:27.507Z,99931.28
2023-03-05T01:11:29.445Z,99933.13
2023-03-05T01:12:31.369Z,99926.13
2023-03-05T01:13:33.282Z,99924.44
2023-03-05T01:14:36.010Z,99920.09
2023-03-05T01:15:37.913Z,99918.25
2023-03-05T01:16:39.930Z,99917.56
2023-03-05T01:17:41.777Z,99919.25
2023-03-05T01:18:43.688Z,99919.44
2023-03-05T01:19:45.611Z,99917.56
2023-03-05T01:20:48.374Z,99911.44
2023-03-05T01:21:50.322Z,99907.53
2023-03-05T01:22:52.952Z,99912.41
2023-03-05T01:23:54.922Z,99916.91
2023-03-05T01:24:56.834Z,99917.88
2023-03-05T01:25:59.917Z,99910.19
2023-03-05T01:27:02.246Z,99915.41
2023-03-05T01:28:04.183Z,99911.88
2023-03-05T01:29:07.385Z,99903.66
2023-03-05T01:30:11.500Z,99915.41
2023-03-05T01:31:13.700Z,99907.41
2023-03-05T01:32:15.655Z,99909.22
2023-03-05T01:33:17.619Z,99906.16
2023-03-05T01:34:19.521Z,99898.50
2023-03-05T01:35:23.850Z,99904.63
2023-03-05T01:36:26.010Z,99905.03
2023-03-05T01:37:28.587Z,99905.03
2023-03-05T01:38:30.400Z,99907.72
2023-03-05T01:39:32.219Z,99897.50
2023-03-05T01:40:34.249Z,99903.38
2023-03-05T01:41:36.294Z,99905.19
2023-03-05T01:42:38.113Z,99908.84
2023-03-05T01:43:40.897Z,99885.78
2023-03-05T01:45:05.219Z,99896.88
2023-03-05T01:46:25.698Z,99892.91
2023-03-05T01:47:27.565Z,99896.56
2023-03-05T01:48:29.401Z,99896.06
2023-03-05T01:49:35.996Z,99887.50
2023-03-05T01:50:38.231Z,99890.84
2023-03-05T01:52:06.673Z,99882.50
2023-03-05T01:53:08.756Z,99891.53
2023-03-05T01:54:14.037Z,99891.84
2023-03-05T01:55:19.500Z,99878.47
2023-03-05T01:56:22.009Z,99885.84
2023-03-05T01:57:31.968Z,99887.81
2023-03-05T01:58:33.946Z,99892.16
2023-03-05T01:59:38.109Z,99873.13
2023-03-05T02:00:44.182Z,99886.16
2023-03-05T02:01:50.688Z,99882.13
2023-03-05T02:02:53.061Z,99887.81
2023-03-05T02:03:54.895Z,99883.50
2023-03-05T02:05:04.002Z,99886.59
2023-03-05T02:06:05.932Z,99877.47
2023-03-05T02:07:08.743Z,99872.09
2023-03-05T02:08:13.421Z,99889.13
2023-03-05T02:09:15.297Z,99884.78
2023-03-05T02:10:19.822Z,99877.78
2023-03-05T02:11:21.845Z,99882.13
2023-03-05T02:12:26.331Z,99867.88
2023-03-05T02:13:32.883Z,99873.44
2023-03-05T02:14:35.260Z,99878.59
2023-03-05T02:15:38.681Z,99883.13
2023-03-05T02:16:41.315Z,99880.44
2023-03-05T02:17:43.509Z,99880.44
2023-03-05T02:18:45.318Z,99873.44
2023-03-05T02:19:53.010Z,99877.94
2023-03-05T02:20:57.955Z,99874.28
2023-03-05T02:21:59.789Z,99874.13
2023-03-05T02:23:01.572Z,99872.59
2023-03-05T02:24:03.440Z,99868.25
2023-03-05T02:25:31.676Z,99875.31
2023-03-05T02:26:33.500Z,99862.63
2023-03-05T02:27:35.696Z,99870.47
2023-03-05T02:28:47.457Z,99865.28
2023-03-05T02:29:50.353Z,99865.13
2023-03-05T02:30:52.735Z,99861.78
2023-03-05T02:31:55.360Z,99863.59
2023-03-05T02:32:57.592Z,99841.00
2023-03-05T02:34:00.398Z,99866.44
2023-03-05T02:35:02.211Z,99857.78
2023-03-05T02:36:04.963Z,99857.09
2023-03-05T02:37:09.382Z,99858.59
2023-03-05T02:38:14.342Z,99853.06
2023-03-05T02:39:17.468Z,99853.25
2023-03-05T02:40:19.278Z,99856.78
2023-03-05T02:41:21.160Z,99857.78
2023-03-05T02:42:23.753Z,99854.25
2023-03-05T02:43:26.783Z,99832.06
2023-03-05T02:44:28.582Z,99848.09
2023-03-05T02:45:30.626Z,99846.44
2023-03-05T02:46:32.598Z,99845.56
2023-03-05T02:47:34.449Z,99849.09
2023-03-05T02:48:36.287Z,99849.91
2023-03-05T02:49:38.421Z,99843.75
2023-03-05T02:50:42.035Z,99834.53
2023-03-05T02:51:44.565Z,99848.25
2023-03-05T02:52:47.168Z,99840.72
2023-03-05T02:53:51.091Z,99846.44
2023-03-05T02:54:53.729Z,99838.75
2023-03-05T02:55:57.945Z,99841.78
2023-03-05T02:56:59.762Z,99842.09
2023-03-05T02:58:02.704Z,99843.75
2023-03-05T02:59:04.628Z,99844.75
2023-03-05T03:00:07.064Z,99842.09
2023-03-05T03:01:10.481Z,99845.56
2023-03-05T03:02:12.982Z,99835.91
2023-03-05T03:03:15.216Z,99841.22
2023-03-05T03:04:17.017Z,99836.75
2023-03-05T03:05:18.888Z,99837.56
2023-03-05T03:06:20.752Z,99834.09
2023-03-05T03:07:22.588Z,99841.22
2023-03-05T03:08:24.392Z,99836.75
2023-03-05T03:09:27.023Z,99836.75
2023-03-05T03:10:28.979Z,99833.41
2023-03-05T03:11:30.859Z,99829.75
2023-03-05T03:12:36.628Z,99828.91
2023-03-05T03:13:39.098Z,99829.38
2023-03-05T03:14:42.664Z,99831.44
2023-03-05T03:15:44.591Z,99827.91
2023-03-05T03:16:46.506Z,99830.56
2023-03-05T03:17:48.435Z,99827.22
2023-03-05T03:18:50.284Z,99820.91
2023-03-05T03:19:52.120Z,99828.22
2023-03-05T03:20:53.992Z,99823.56
2023-03-05T03:21:55.838Z,99826.41
2023-03-05T03:22:57.708Z,99826.41
2023-03-05T03:23:59.526Z,99829.06
2023-03-05T03:25:01.712Z,99827.22
2023-03-05T03:26:03.765Z,99821.91
2023-03-05T03:27:06.177Z,99826.41
2023-03-05T03:28:08.038Z,99814.91
2023-03-05T03:29:09.916Z,99821.06
2023-03-05T03:30:13.355Z,99822.88
2023-03-05T03:31:15.737Z,99816.34
2023-03-05T03:32:17.714Z,99816.75
2023-03-05T03:33:19.714Z,99830.06
2023-03-05T03:34:21.503Z,99826.41
2023-03-05T03:35:23.420Z,99795.97
2023-03-05T03:36:25.305Z,99814.66
2023-03-05T03:37:27.200Z,99807.31
2023-03-05T03:38:29.153Z,99822.06
2023-03-05T03:39:31.041Z,99828.22
2023-03-05T03:40:32.876Z,99828.22
2023-03-05T03:41:34.660Z,99807.97
2023-03-05T03:42:36.447Z,99823.88
2023-03-05T03:43:38.247Z,99816.75
2023-03-05T03:44:40.023Z,99803.50
2023-03-05T03:45:44.971Z,99795.97
2023-03-05T03:46:48.239Z,99817.72
2023-03-05T03:47:51.512Z,99808.53
2023-03-05T03:48:53.278Z,99816.75
2023-03-05T03:49:55.222Z,99800.66
2023-03-05T03:50:56.978Z,99814.22
2023-03-05T03:51:58.912Z,99813.22
2023-03-05T03:53:00.862Z,99813.22
2023-03-05T03:54:02.985Z,99804.19
2023-03-05T03:55:05.174Z,99807.06
2023-03-05T03:56:07.268Z,99811.56
2023-03-05T03:57:09.669Z,99806.22
2023-03-05T03:58:11.631Z,99808.06
2023-03-05T03:59:13.936Z,99813.41
2023-03-05T04:00:16.237Z,99802.19
2023-03-05T04:01:19.285Z,99799.53
2023-03-05T04:02:21.340Z,99802.75
2023-03-05T04:03:23.274Z,99804.69
2023-03-05T04:04:26.612Z,99793.97
2023-03-05T04:05:28.623Z,99808.88
2023-03-05T04:06:31.204Z,99800.06
2023-03-05T04:07:33.114Z,99803.69
2023-03-05T04:08:35.006Z,99795.56
2023-03-05T04:09:36.869Z,99783.63
2023-03-05T04:10:39.894Z,99792.66
2023-03-05T04:11:41.713Z,99808.88
2023-03-05T04:12:43.678Z,99806.22
2023-03-05T04:13:47.186Z,99807.22
2023-03-05T04:14:49.764Z,99816.06
2023-03-05T04:15:51.703Z,99809.75
2023-03-05T04:16:53.651Z,99806.22
2023-03-05T04:17:55.597Z,99800.06
2023-03-05T04:18:58.006Z,99793.16
2023-03-05T04:19:59.941Z,99797.31
2023-03-05T04:21:01.806Z,99810.72
2023-03-05T04:22:03.661Z,99797.56
2023-03-05T04:23:05.552Z,99803.00
2023-03-05T04:24:08.386Z,99809.88
2023-03-05T04:25:10.894Z,99804.69
2023-03-05T04:26:12.725Z,99794.66
2023-03-05T04:27:14.564Z,99800.06
2023-03-05T04:28:17.724Z,99780.50
2023-03-05T04:29:20.226Z,99798.53
2023-03-05T04:30:22.225Z,99804.53
2023-03-05T04:31:24.071Z,99800.06
2023-03-05T04:32:29.983Z,99793.34
2023-03-05T04:33:32.024Z,99796.41
2023-03-05T04:34:35.247Z,99800.34
2023-03-05T04:35:37.898Z,99796.03
2023-03-05T04:36:39.865Z,99800.06
2023-03-05T04:37:41.630Z,99800.88
2023-03-05T04:38:43.504Z,99802.88
2023-03-05T04:39:45.497Z,99792.22
2023-03-05T04:40:47.710Z,99794.03
2023-03-05T04:41:49.573Z,99802.88
2023-03-05T04:42:51.363Z,99797.56
2023-03-05T04:43:53.193Z,99801.03
2023-03-05T04:44:55.206Z,99796.69
2023-03-05T04:45:57.007Z,99805.69
2023-03-05T04:46:58.789Z,99789.63
2023-03-05T04:48:00.948Z,99800.34
2023-03-05T04:49:03.017Z,99807.34
2023-03-05T04:50:05.978Z,99809.34
2023-03-05T04:51:07.756Z,99805.84
2023-03-05T04:52:12.173Z,99812.84
2023-03-05T04:53:14.037Z,99817.03
2023-03-05T04:54:15.843Z,99812.84
2023-03-05T04:55:18.681Z,99812.69
2023-03-05T04:56:20.512Z,99815.34
2023-03-05T04:57:23.832Z,99811.88
2023-03-05T04:58:25.897Z,99818.00
2023-03-05T04:59:27.706Z,99823.34
2023-03-05T05:00:30.396Z,99816.34
2023-03-05T05:01:33.058Z,99816.34
2023-03-05T05:02:35.024Z,99820.16
2023-03-05T05:03:36.824Z,99808.16
2023-03-05T05:04:38.728Z,99821.66
2023-03-05T05:05:40.659Z,99820.84
2023-03-05T05:06:42.485Z,99816.50
2023-03-05T05:07:44.857Z,99823.66
2023-03-05T05:08:46.690Z,99824.34
2023-03-05T05:09:48.474Z,99819.19
2023-03-05T05:11:05.426Z,99802.66
2023-03-05T05:12:07.806Z,99818.88
2023-03-05T05:13:09.578Z,99816.19
2023-03-05T05:14:11.383Z,99817.19
2023-03-05T05:15:13.900Z,99818.19
2023-03-05T05:16:16.311Z,99820.84
2023-03-05T05:17:18.169Z,99828.00
2023-03-05T05:18:20.702Z,99823.66
2023-03-05T05:19:22.773Z,99821.00
2023-03-05T05:20:24.568Z,99824.50
2023-03-05T05:21:26.520Z,99823.81
2023-03-05T05:22:29.357Z,99824.66
2023-03-05T05:23:31.157Z,99807.63
2023-03-05T05:24:32.933Z,99809.16
2023-03-05T05:25:34.735Z,99820.16
2023-03-05T05:26:36.565Z,99826.31
2023-03-05T05:27:40.220Z,99824.66
2023-03-05T05:28:43.643Z,99824.81
2023-03-05T05:29:50.188Z,99826.31
2023-03-05T05:30:52.053Z,99817.97
2023-03-05T05:31:54.283Z,99833.31
2023-03-05T05:32:56.341Z,99816.16
2023-03-05T05:33:58.202Z,99827.31
2023-03-05T05:35:00.097Z,99834.31
2023-03-05T05:36:07.994Z,99832.66
2023-03-05T05:37:09.883Z,99829.84
2023-03-05T05:38:11.669Z,99833.50
2023-03-05T05:39:13.441Z,99835.63
2023-03-05T05:40:15.463Z,99821.25
2023-03-05T05:41:19.141Z,99835.31
2023-03-05T05:42:23.697Z,99840.63
2023-03-05T05:43:25.568Z,99832.94
2023-03-05T05:44:27.508Z,99831.13
2023-03-05T05:45:29.641Z,99822.91
2023-03-05T05:46:31.808Z,99838.81
2023-03-05T05:47:33.756Z,99837.97
2023-03-05T05:48:36.184Z,99843.31
2023-03-05T05:49:38.325Z,99847.81
2023-03-05T05:50:41.202Z,99846.81
2023-03-05T05:51:42.992Z,99845.16
2023-03-05T05:52:44.828Z,99845.97
2023-03-05T05:53:47.641Z,99851.28
2023-03-05T05:54:49.780Z,99844.28
2023-03-05T05:55:52.444Z,99798.13
2023-03-05T05:56:54.230Z,99847.81
2023-03-05T05:57:56.023Z,99839.59
2023-03-05T05:58:57.824Z,99853.13
2023-03-05T05:59:59.698Z,99853.97
2023-03-05T06:01:02.233Z,99853.13
2023-03-05T06:02:04.572Z,99844.09
2023-03-05T06:03:07.878Z,99852.28
2023-03-05T06:04:09.677Z,99853.97
2023-03-05T06:05:14.773Z,99851.47
2023-03-05T06:06:19.930Z,99851.28
2023-03-05T06:07:21.710Z,99845.09
2023-03-05T06:08:23.478Z,99859.28
2023-03-05T06:09:25.337Z,99861.28
2023-03-05T06:10:27.630Z,99816.63
2023-03-05T06:11:29.876Z,99860.44
2023-03-05T06:12:31.675Z,99866.59
2023-03-05T06:13:34.018Z,99866.59
2023-03-05T06:14:35.863Z,99877.13
2023-03-05T06:15:37.645Z,99868.28
2023-03-05T06:16:39.959Z,99860.44
2023-03-05T06:17:41.836Z,99871.94
2023-03-05T06:18:43.883Z,99858.41
2023-03-05T06:19:45.814Z,99858.53
2023-03-05T06:20:57.880Z,99874.59
2023-03-05T06:21:59.649Z,99874.28
2023-03-05T06:23:01.521Z,99865.25
2023-03-05T06:24:03.666Z,99872.78
2023-03-05T06:25:07.653Z,99880.09
2023-03-05T06:26:12.411Z,99887.91
2023-03-05T06:27:14.214Z,99878.72
2023-03-05T06:28:16.121Z,99884.19
2023-03-05T06:29:18.208Z,99888.22
2023-03-05T06:30:20.117Z,99884.19
2023-03-05T06:31:25.863Z,99893.56
2023-03-05T06:32:27.871Z,99897.22
2023-03-05T06:33:30.097Z,99893.03
2023-03-05T06:34:31.922Z,99902.22
2023-03-05T06:35:34.053Z,99900.56
2023-03-05T06:36:35.930Z,99889.69
2023-03-05T06:37:37.784Z,99898.75
2023-03-05T06:38:40.212Z,99905.88
2023-03-05T06:39:42.124Z,99903.22
2023-03-05T06:40:43.921Z,99903.38
2023-03-05T06:41:45.861Z,99911.22
2023-03-05T06:42:47.829Z,99899.19
2023-03-05T06:43:50.205Z,99911.22
2023-03-05T06:44:52.006Z,99908.56
2023-03-05T06:46:05.281Z,99908.41
2023-03-05T06:47:08.432Z,99915.41
2023-03-05T06:48:10.382Z,99907.34
2023-03-05T06:49:12.312Z,99912.06
2023-03-05T06:50:14.203Z,99908.19
2023-03-05T06:51:21.460Z,99908.19
2023-03-05T06:52:23.327Z,99916.53
2023-03-05T06:53:26.249Z,99899.81
2023-03-05T06:54:28.094Z,99922.88
2023-03-05T06:55:30.304Z,99919.38
2023-03-05T06:56:32.811Z,99923.84
2023-03-05T06:57:34.643Z,99918.53
2023-03-05T06:58:36.757Z,99923.84
2023-03-05T06:59:38.541Z,99927.50
2023-03-05T07:00:40.420Z,99907.25
2023-03-05T07:01:43.437Z,99915.78
2023-03-05T07:02:45.277Z,99924.84
2023-03-05T07:03:52.099Z,99925.84
2023-03-05T07:04:53.934Z,99929.19
2023-03-05T07:05:55.693Z,99926.53
2023-03-05T07:06:58.518Z,99930.19
2023-03-05T07:08:00.469Z,99912.31
2023-03-05T07:09:03.498Z,99930.84
2023-03-05T07:10:07.615Z,99926.38
2023-03-05T07:11:14.834Z,99929.72
2023-03-05T07:12:16.683Z,99930.25
2023-03-05T07:13:18.462Z,99926.59
2023-03-05T07:14:20.350Z,99929.94
2023-03-05T07:15:22.354Z,99929.94
2023-03-05T07:16:26.825Z,99932.31
2023-03-05T07:17:28.671Z,99936.34
2023-03-05T07:18:30.455Z,99933.38
2023-03-05T07:19:32.319Z,99918.69
2023-03-05T07:20:36.566Z,99939.09
2023-03-05T07:21:40.063Z,99909.03
2023-03-05T07:22:42.148Z,99909.03
2023-03-05T07:23:44.110Z,99909.09
2023-03-05T07:24:46.012Z,99919.94
2023-03-05T07:25:47.830Z,99917.16
2023-03-05T07:26:49.606Z,99932.44
2023-03-05T07:27:51.678Z,99934.44
2023-03-05T07:28:54.348Z,99927.63
2023-03-05T07:29:56.101Z,99941.19
2023-03-05T07:31:03.622Z,99900.53
2023-03-05T07:32:06.078Z,99917.50
2023-03-05T07:33:07.888Z,99937.13
2023-03-05T07:34:09.892Z,99932.09
2023-03-05T07:35:11.684Z,99942.53
2023-03-05T07:36:13.999Z,99940.56
2023-03-05T07:37:15.813Z,99940.09
2023-03-05T07:38:17.857Z,99943.25
2023-03-05T07:39:19.943Z,99933.22
2023-03-05T07:40:22.511Z,99928.09
2023-03-05T07:41:24.430Z,99940.34
2023-03-05T07:42:26.330Z,99935.69
2023-03-05T07:43:42.881Z,99940.91
2023-03-05T07:44:44.767Z,99946.09
2023-03-05T07:45:46.773Z,99943.25
2023-03-05T07:46:48.621Z,99947.44
2023-03-05T07:47:52.505Z,99946.31
2023-03-05T07:48:54.932Z,99944.31
2023-03-05T07:49:56.713Z,99951.00
2023-03-05T07:51:06.976Z,99948.16
2023-03-05T07:52:09.212Z,99954.19
2023-03-05T07:53:11.111Z,99959.88
2023-03-05T07:54:12.972Z,99957.06
2023-03-05T07:55:14.866Z,99947.19
2023-03-05T07:56:31.870Z,99957.56
2023-03-05T07:57:35.626Z,99948.03
2023-03-05T07:58:37.532Z,99967.78
2023-03-05T07:59:39.934Z,99947.72
2023-03-05T08:00:41.728Z,99956.25
2023-03-05T08:01:44.305Z,99964.09
2023-03-05T08:02:48.101Z,99968.28
2023-03-05T08:03:50.118Z,99971.66
2023-03-05T08:04:51.910Z,99969.78
2023-03-05T08:05:53.708Z,99975.00
2023-03-05T08:06:55.506Z,99974.00
2023-03-05T08:07:57.376Z,99979.34
2023-03-05T08:08:59.868Z,99974.00
2023-03-05T08:10:01.643Z,99967.31
2023-03-05T08:11:05.724Z,99977.34
2023-03-05T08:12:07.930Z,99980.69
2023-03-05T08:13:10.021Z,99986.84
2023-03-05T08:14:12.496Z,99981.34
2023-03-05T08:15:14.384Z,99977.03
2023-03-05T08:16:21.668Z,99972.00
2023-03-05T08:17:23.521Z,99982.03
2023-03-05T08:18:25.750Z,99973.00
2023-03-05T08:19:27.588Z,99983.03
2023-03-05T08:20:29.664Z,99976.16
2023-03-05T08:21:34.415Z,99980.38
2023-03-05T08:22:36.920Z,99979.38
2023-03-05T08:23:38.790Z,99968.66
2023-03-05T08:24:40.667Z,99983.03
2023-03-05T08:25:42.589Z,99982.03
2023-03-05T08:26:44.786Z,99987.38
2023-03-05T08:27:47.401Z,99982.19
2023-03-05T08:28:49.722Z,99982.03
2023-03-05T08:29:51.545Z,99964.97
2023-03-05T08:30:53.523Z,99990.03
2023-03-05T08:31:55.896Z,99990.03
2023-03-05T08:32:57.700Z,99990.03
2023-03-05T08:34:01.295Z,99986.53
2023-03-05T08:35:04.766Z,99987.19
2023-03-05T08:36:08.587Z,99979.00
2023-03-05T08:37:10.500Z,99963.47
2023-03-05T08:38:12.363Z,99985.38
2023-03-05T08:39:14.170Z,99991.72
2023-03-05T08:40:18.220Z,99991.38
2023-03-05T08:41:20.396Z,99989.88
2023-03-05T08:42:22.961Z,99994.53
2023-03-05T08:43:24.763Z,99997.22
2023-03-05T08:44:26.595Z,99987.38
2023-03-05T08:45:28.889Z,99996.38
2023-03-05T08:46:30.923Z,99991.03
2023-03-05T08:47:32.716Z,99997.38
2023-03-05T08:48:34.888Z,99999.88
2023-03-05T08:49:37.575Z,99986.03
2023-03-05T08:50:39.580Z,99981.00
2023-03-05T08:51:41.519Z,99988.38
2023-03-05T08:52:43.325Z,99968.28
2023-03-05T08:53:46.185Z,99987.84
2023-03-05T08:54:48.235Z,99995.53
2023-03-05T08:55:57.703Z,99989.38
2023-03-05T08:56:59.911Z,99977.81
2023-03-05T08:58:01.776Z,99987.69
2023-03-05T08:59:03.926Z,99989.38
2023-03-05T09:00:07.419Z,99990.38
2023-03-05T09:01:09.858Z,99993.03
2023-03-05T09:02:15.081Z,99993.19
2023-03-05T09:03:17.273Z,99980.16
2023-03-05T09:04:19.296Z,99994.88
2023-03-05T09:05:21.048Z,99997.72
2023-03-05T09:06:22.878Z,100001.19
2023-03-05T09:07:24.793Z,100000.38
2023-03-05T09:08:26.556Z,99988.34
2023-03-05T09:09:30.160Z,100000.38
2023-03-05T09:10:31.969Z,99994.38
2023-03-05T09:11:36.214Z,99997.72
2023-03-05T09:12:38.112Z,99991.38
2023-03-05T09:13:40.366Z,99994.19
2023-03-05T09:14:42.381Z,99989.69
2023-03-05T09:15:44.340Z,99995.03
2023-03-05T09:16:46.321Z,99988.03
2023-03-05T09:17:48.192Z,99977.13
2023-03-05T09:18:50.021Z,99991.50
2023-03-05T09:19:51.977Z,99983.50
2023-03-05T09:20:54.799Z,99988.03
2023-03-05T09:21:57.208Z,99982.81
2023-03-05T09:22:59.038Z,99988.03
2023-03-05T09:24:00.979Z,99973.97
2023-03-05T09:25:02.773Z,99975.66
2023-03-05T09:26:09.069Z,99984.69
2023-03-05T09:27:11.012Z,99977.47
2023-03-05T09:28:13.262Z,99962.28
2023-03-05T09:29:15.083Z,99983.69
2023-03-05T09:30:17.265Z,99983.81
2023-03-05T09:31:19.180Z,99975.31
2023-03-05T09:32:21.099Z,99990.03
2023-03-05T09:33:23.407Z,99982.47
2023-03-05T09:34:25.303Z,99993.69
2023-03-05T09:35:27.449Z,99989.34
2023-03-05T09:36:31.104Z,99989.34
2023-03-05T09:37:33.559Z,99985.81
2023-03-05T09:38:36.801Z,99989.16
2023-03-05T09:39:38.565Z,99991.00
2023-03-05T09:40:56.288Z,99982.16
2023-03-05T09:42:04.470Z,99986.34
2023-03-05T09:43:36.970Z,99983.03
2023-03-05T09:44:56.001Z,99977.84
2023-03-05T09:46:01.767Z,99955.88
2023-03-05T09:47:10.077Z,99985.34
2023-03-05T09:48:24.178Z,99986.34
2023-03-05T09:49:32.214Z,99980.81
2023-03-05T09:50:48.305Z,99995.38
2023-03-05T09:51:55.785Z,99986.50
2023-03-05T09:53:12.605Z,99980.34
2023-03-05T09:54:24.886Z,99979.66
2023-03-05T09:55:40.552Z,99989.16
2023-03-05T09:57:04.829Z,99994.69
2023-03-05T09:58:22.895Z,99990.69
2023-03-05T09:59:46.141Z,99993.03
2023-03-05T10:00:56.222Z,99991.69
2023-03-05T10:02:05.308Z,99993.69
2023-03-05T10:03:16.119Z,99987.66
2023-03-05T10:04:44.136Z,99985.69
2023-03-05T10:06:24.993Z,99989.69
2023-03-05T10:07:32.277Z,99987.03
2023-03-05T10:08:56.917Z,99992.38
2023-03-05T10:10:09.954Z,99997.34
2023-03-05T10:11:25.840Z,99973.13
2023-03-05T10:12:43.384Z,99986.66
2023-03-05T10:13:46.246Z,99976.25
2023-03-05T10:14:49.216Z,99997.00
2023-03-05T10:16:27.905Z,99990.66
2023-03-05T10:17:41.558Z,99997.34
2023-03-05T10:18:49.452Z,99996.00
2023-03-05T10:19:57.338Z,99998.00
2023-03-05T10:21:09.990Z,99995.47
2023-03-05T10:22:20.416Z,99995.47
2023-03-05T10:23:25.923Z,99993.78
2023-03-05T10:24:38.993Z,99992.97
2023-03-05T10:26:04.942Z,99997.31
2023-03-05T10:27:21.674Z,99987.78
2023-03-05T10:28:44.815Z,100005.16
2023-03-05T10:30:17.443Z,100001.34
2023-03-05T10:31:41.189Z,100001.03
2023-03-05T10:33:18.196Z,99997.69
2023-03-05T10:34:39.294Z,99998.34
2023-03-05T10:36:19.064Z,100006.88
2023-03-05T10:37:42.511Z,100001.84
2023-03-05T10:38:53.566Z,100000.16
2023-03-05T10:40:26.086Z,99998.69
2023-03-05T10:41:43.345Z,99987.09
2023-03-05T10:42:48.385Z,99987.31
2023-03-05T10:44:03.643Z,99982.72
2023-03-05T10:45:45.769Z,100006.50
2023-03-05T10:46:49.192Z,99996.16
2023-03-05T10:48:05.549Z,100003.66
2023-03-05T10:49:12.998Z,100001.94
2023-03-05T10:50:19.941Z,100003.13
2023-03-05T10:51:31.623Z,99995.56
2023-03-05T10:52:37.166Z,100003.13
2023-03-05T10:53:52.446Z,99997.94
2023-03-05T10:54:54.439Z,100002.13
2023-03-05T10:55:56.664Z,100001.44
2023-03-05T10:57:10.758Z,99998.94
2023-03-05T10:58:14.208Z,99990.91
2023-03-05T10:59:16.028Z,99986.72
2023-03-05T11:00:27.825Z,100001.78
2023-03-05T11:01:31.907Z,99999.78
2023-03-05T11:02:34.432Z,99990.41
2023-03-05T11:03:59.748Z,100005.94
2023-03-05T11:05:01.920Z,100010.13
2023-03-05T11:06:04.730Z,99998.44
2023-03-05T11:07:15.556Z,100004.25
2023-03-05T11:08:35.340Z,100011.97
2023-03-05T11:09:37.172Z,100007.47
2023-03-05T11:10:38.964Z,100005.94
2023-03-05T11:11:40.846Z,100010.59
2023-03-05T11:12:42.765Z,100002.22
2023-03-05T11:13:55.667Z,100011.59
2023-03-05T11:15:09.455Z,100010.28
2023-03-05T11:16:20.857Z,100004.94
2023-03-05T11:17:49.000Z,100010.69
2023-03-05T11:18:53.834Z,100000.00
2023-03-05T11:19:57.588Z,99997.94
2023-03-05T11:21:27.797Z,100005.81
2023-03-05T11:22:33.086Z,99994.66
2023-03-05T11:23:35.488Z,100000.13
2023-03-05T11:24:37.740Z,99990.56
2023-03-05T11:26:13.260Z,99995.66
2023-03-05T11:27:38.542Z,100002.34
2023-03-05T11:28:56.356Z,100003.34
2023-03-05T11:29:58.960Z,100009.50
2023-03-05T11:31:02.875Z,100005.63
2023-03-05T11:32:22.816Z,100000.00
2023-03-05T11:33:25.734Z,99995.25
2023-03-05T11:34:35.480Z,100004.63
2023-03-05T11:35:40.971Z,99998.78
2023-03-05T11:37:04.516Z,99997.31
2023-03-05T11:38:25.050Z,99998.00
2023-03-05T11:39:30.445Z,100006.00
2023-03-05T11:40:37.490Z,99994.78
2023-03-05T11:41:43.646Z,99988.59
2023-03-05T11:42:46.885Z,99991.28
2023-03-05T11:43:51.040Z,99990.44
2023-03-05T11:44:56.073Z,99992.28
2023-03-05T11:46:03.672Z,99989.78
2023-03-05T11:47:17.536Z,99991.28
2023-03-05T11:48:32.456Z,99985.63
2023-03-05T11:49:39.271Z,99987.31
2023-03-05T11:50:44.090Z,99989.13
2023-03-05T11:51:55.872Z,99989.31
2023-03-05T11:52:59.321Z,99970.09
2023-03-05T11:54:09.189Z,99983.13
2023-03-05T11:55:48.557Z,99984.31
2023-03-05T11:56:52.817Z,99982.31
2023-03-05T11:58:12.976Z,99963.88
2023-03-05T11:59:19.141Z,99990.66
2023-03-05T12:00:27.364Z,99981.97
2023-03-05T12:01:36.272Z,99983.97
2023-03-05T12:02:38.590Z,99984.66
2023-03-05T12:03:40.660Z,99983.97
2023-03-05T12:04:42.464Z,99986.63
2023-03-05T12:05:51.643Z,99979.78
2023-03-05T12:07:00.545Z,99985.78
2023-03-05T12:08:02.941Z,99983.97
2023-03-05T12:09:23.872Z,99986.31
2023-03-05T12:10:26.405Z,99979.97
2023-03-05T12:11:31.771Z,99987.31
2023-03-05T12:12:51.737Z,99985.31
2023-03-05T12:14:04.140Z,99981.66
2023-03-05T12:15:12.144Z,99988.66
2023-03-05T12:16:38.969Z,99988.50
2023-03-05T12:17:50.015Z,99992.00
2023-03-05T12:19:08.629Z,99986.50
2023-03-05T12:20:56.874Z,99990.50
2023-03-05T12:21:59.324Z,99975.66
2023-03-05T12:23:01.228Z,99983.81
2023-03-05T12:24:26.730Z,99986.00
2023-03-05T12:25:35.108Z,99988.34
2023-03-05T12:27:04.338Z,99987.34
2023-03-05T12:28:15.028Z,99983.00
2023-03-05T12:29:41.648Z,99979.34
2023-03-05T12:30:43.653Z,99987.34
2023-03-05T12:31:45.678Z,99980.66
2023-03-05T12:32:47.461Z,99982.66
2023-03-05T12:33:49.326Z,99963.53
2023-03-05T12:35:05.960Z,99985.63
2023-03-05T12:36:19.716Z,99981.66
2023-03-05T12:37:21.514Z,99977.31
2023-03-05T12:38:34.508Z,99974.56
2023-03-05T12:39:47.639Z,99979.13
2023-03-05T12:40:49.486Z,99981.66
2023-03-05T12:41:51.380Z,99983.66